Time;durP1;ratioP1;P1;durP2;ratioP2;P2;SDS_P1;SDS_P2;PMS_P1;PMS_P2;Temp;Humidity;BMP_temperature;BMP_pressure;BME280_temperature;BME280_humidity;BME280_pressure;Samples;Min_cycle;Max_cycle;Signal;HPM_P1;HPM_P2
2023/12/29 00:01:54;;;;;;;14.63;12.80;;;;;;;4.75;87.47;93400.03;5071180;28;20246;-72
2023/12/29 00:04:20;;;;;;;12.63;11.53;;;;;;;4.88;86.68;93403.22;5058093;28;20209;-72
2023/12/29 00:06:45;;;;;;;13.87;12.23;;;;;;;4.96;86.47;93399.50;5062834;28;20221;-72
2023/12/29 00:09:12;;;;;;;13.33;12.23;;;;;;;4.79;86.85;93391.59;5040047;28;20183;-72
2023/12/29 00:11:38;;;;;;;13.73;12.13;;;;;;;4.85;86.22;93405.47;5038383;28;20186;-72
2023/12/29 00:14:03;;;;;;;14.17;12.77;;;;;;;4.78;86.71;93402.97;5050623;28;20183;-72
2023/12/29 00:16:28;;;;;;;14.20;12.80;;;;;;;4.76;86.72;93392.06;5049423;28;20190;-72
2023/12/29 00:18:54;;;;;;;14.40;13.13;;;;;;;4.65;87.56;93395.41;5043009;28;20193;-71
2023/12/29 00:21:19;;;;;;;14.90;13.57;;;;;;;4.58;87.63;93386.97;5045777;28;20237;-71
2023/12/29 00:23:44;;;;;;;12.97;12.07;;;;;;;4.83;86.83;93405.69;5064224;28;20228;-72
2023/12/29 00:26:10;;;;;;;14.23;13.13;;;;;;;4.57;87.46;93398.34;5064586;28;20260;-72
2023/12/29 00:28:40;;;;;;;14.37;13.17;;;;;;;4.46;87.53;93409.44;5070074;28;20308;-72
2023/12/29 00:31:05;;;;;;;13.23;12.27;;;;;;;4.42;88.17;93402.38;5064772;28;20201;-72
2023/12/29 00:33:31;;;;;;;13.43;12.53;;;;;;;4.39;88.63;93408.75;5070040;28;20240;-72
2023/12/29 00:35:57;;;;;;;15.07;13.77;;;;;;;4.45;88.37;93405.28;5067551;28;20185;-72
2023/12/29 00:38:22;;;;;;;14.23;13.13;;;;;;;4.24;88.61;93386.91;5063020;28;20244;-72
2023/12/29 00:40:48;;;;;;;15.30;13.90;;;;;;;4.32;87.83;93391.75;5057313;28;20197;-71
2023/12/29 00:43:14;;;;;;;16.93;15.07;;;;;;;4.32;87.97;93387.38;5053779;28;20233;-72
2023/12/29 00:45:39;;;;;;;15.17;14.07;;;;;;;4.06;89.43;93374.06;5048935;28;20250;-72
2023/12/29 00:48:05;;;;;;;14.43;13.43;;;;;;;4.13;89.54;93380.69;5069038;28;20247;-72
2023/12/29 00:50:30;;;;;;;14.07;12.73;;;;;;;4.01;89.47;93376.50;5069285;28;20240;-72
2023/12/29 00:52:55;;;;;;;13.80;12.77;;;;;;;3.97;89.79;93367.63;5052019;28;20217;-72
2023/12/29 00:55:21;;;;;;;15.17;13.70;;;;;;;4.10;89.25;93375.97;5047829;28;20620;-71
2023/12/29 00:57:46;;;;;;;14.70;13.40;;;;;;;4.12;88.23;93373.97;5048844;28;20298;-70
2023/12/29 01:00:12;;;;;;;16.37;14.97;;;;;;;3.94;89.27;93370.66;5048839;28;20190;-71
2023/12/29 01:02:38;;;;;;;15.20;13.87;;;;;;;4.04;89.30;93379.44;5040438;28;20291;-72
2023/12/29 01:05:04;;;;;;;16.63;15.17;;;;;;;4.16;89.09;93375.09;5035430;28;20182;-71
2023/12/29 01:07:29;;;;;;;16.57;14.87;;;;;;;4.07;88.93;93376.41;5058771;28;20213;-72
2023/12/29 01:09:55;;;;;;;17.53;15.90;;;;;;;4.08;89.09;93379.78;5069434;28;20340;-71
2023/12/29 01:12:20;;;;;;;18.60;16.00;;;;;;;4.05;89.14;93362.94;5062886;28;20222;-72
2023/12/29 01:14:45;;;;;;;20.27;16.57;;;;;;;4.15;88.91;93358.03;5063555;28;20237;-71
2023/12/29 01:17:11;;;;;;;17.63;13.37;;;;;;;4.23;88.56;93375.81;5062860;28;20214;-71
2023/12/29 01:19:36;;;;;;;16.90;14.50;;;;;;;4.19;88.85;93358.34;5062407;28;20241;-72
2023/12/29 01:22:02;;;;;;;19.90;15.17;;;;;;;4.26;87.98;93362.44;5068672;28;20248;-72
2023/12/29 01:24:27;;;;;;;23.90;16.60;;;;;;;4.32;87.51;93371.88;5069261;28;20181;-71
2023/12/29 01:26:52;;;;;;;28.30;16.57;;;;;;;4.27;87.18;93368.38;5057630;28;20221;-71
2023/12/29 01:29:18;;;;;;;20.17;15.67;;;;;;;4.22;87.21;93363.88;5050093;28;20217;-72
2023/12/29 01:31:43;;;;;;;14.93;12.97;;;;;;;4.30;86.63;93373.91;5055059;28;20221;-71
2023/12/29 01:34:08;;;;;;;14.83;13.53;;;;;;;4.36;86.68;93379.97;5069124;28;20263;-71
2023/12/29 01:36:34;;;;;;;12.47;11.30;;;;;;;4.41;86.11;93382.69;5066847;28;20186;-72
2023/12/29 01:38:59;;;;;;;14.83;13.33;;;;;;;4.15;86.84;93363.19;5068797;28;20193;-72
2023/12/29 01:41:24;;;;;;;15.40;12.77;;;;;;;4.11;87.32;93377.53;5067894;28;20220;-71
2023/12/29 01:43:56;;;;;;;13.00;11.73;;;;;;;4.23;87.00;93386.13;5069151;28;20193;-72
2023/12/29 01:46:21;;;;;;;13.47;12.33;;;;;;;4.17;87.86;93381.81;5069037;28;20177;-72
2023/12/29 01:48:46;;;;;;;13.43;12.23;;;;;;;4.12;87.82;93379.13;5059166;28;20244;-71
2023/12/29 01:51:12;;;;;;;12.80;11.70;;;;;;;3.94;88.93;93379.19;5063540;28;20205;-72
2023/12/29 01:53:37;;;;;;;14.70;13.20;;;;;;;4.08;87.86;93372.03;5064835;28;20231;-71
2023/12/29 01:56:03;;;;;;;25.10;16.37;;;;;;;4.07;87.18;93368.66;5063391;28;20186;-71
2023/12/29 01:58:30;;;;;;;17.43;15.13;;;;;;;4.02;86.73;93362.56;5055654;28;20253;-72
2023/12/29 02:00:55;;;;;;;15.17;13.53;;;;;;;3.86;87.30;93358.81;5057093;28;20197;-72
2023/12/29 02:03:20;;;;;;;13.90;12.70;;;;;;;3.76;87.98;93353.41;5063819;28;20281;-71
2023/12/29 02:05:47;;;;;;;14.43;12.93;;;;;;;3.65;88.57;93318.00;5072817;28;20203;-72
2023/12/29 02:08:13;;;;;;;14.93;13.63;;;;;;;3.91;88.97;93358.94;5072442;28;20285;-71
2023/12/29 02:10:39;;;;;;;14.37;12.87;;;;;;;3.66;89.73;93378.19;5067171;28;20942;-71
2023/12/29 02:13:04;;;;;;;14.40;13.10;;;;;;;3.56;89.90;93363.19;5066401;28;20225;-71
2023/12/29 02:15:29;;;;;;;13.33;12.13;;;;;;;3.52;89.88;93346.56;5071999;28;20201;-72
2023/12/29 02:18:01;;;;;;;13.13;12.03;;;;;;;3.62;89.72;93348.63;5053032;28;20222;-71
2023/12/29 02:20:27;;;;;;;13.03;11.93;;;;;;;3.65;89.52;93328.31;5051969;28;20222;-72
2023/12/29 02:22:52;;;;;;;11.87;10.90;;;;;;;3.87;88.68;93334.59;5050359;28;20291;-72
2023/12/29 02:25:18;;;;;;;11.33;10.73;;;;;;;3.79;88.70;93334.88;5048630;28;20182;-71
2023/12/29 02:28:13;;;;;;;13.17;12.13;;;;;;;3.93;87.83;93333.69;5050428;28;20304;-72
2023/12/29 02:30:45;;;;;;;12.57;11.77;;;;;;;3.90;87.43;93334.13;5043464;28;20214;-72
2023/12/29 02:33:16;;;;;;;11.83;11.07;;;;;;;3.72;87.95;93323.84;5048040;28;20222;-71
2023/12/29 02:35:43;;;;;;;12.77;11.83;;;;;;;3.86;87.30;93327.81;5042975;28;20194;-72
2023/12/29 02:38:10;;;;;;;12.80;11.70;;;;;;;4.03;86.51;93326.19;5046127;28;20222;-72
2023/12/29 02:40:36;;;;;;;11.87;11.23;;;;;;;3.82;87.20;93326.69;5046381;28;20199;-72
2023/12/29 02:43:02;;;;;;;12.33;11.43;;;;;;;3.77;87.08;93318.03;5044129;28;20269;-71
2023/12/29 02:45:27;;;;;;;11.63;11.00;;;;;;;3.75;87.30;93320.06;5044041;28;20205;-72
2023/12/29 02:47:52;;;;;;;10.83;10.10;;;;;;;3.75;87.71;93304.56;5064515;28;20221;-72
2023/12/29 02:50:18;;;;;;;10.93;10.20;;;;;;;3.79;87.67;93282.44;5072025;28;20236;-71
2023/12/29 02:52:43;;;;;;;12.17;11.43;;;;;;;3.81;87.89;93298.50;5062733;28;20340;-71
2023/12/29 02:55:09;;;;;;;12.47;11.47;;;;;;;4.02;86.62;93298.00;5072110;28;20233;-72
2023/12/29 02:57:34;;;;;;;12.93;11.90;;;;;;;3.90;87.09;93292.03;5068745;28;20235;-71
2023/12/29 03:00:00;;;;;;;12.33;11.53;;;;;;;3.82;87.44;93295.72;5071633;28;20189;-72
2023/12/29 03:02:25;;;;;;;11.53;10.67;;;;;;;3.79;87.94;93291.00;5070972;28;20222;-72
2023/12/29 03:04:51;;;;;;;11.07;10.37;;;;;;;3.77;87.21;93284.44;5070694;28;20189;-72
2023/12/29 03:07:16;;;;;;;11.23;10.53;;;;;;;3.82;86.53;93290.53;5066513;28;20213;-72
2023/12/29 03:09:42;;;;;;;12.87;11.90;;;;;;;3.74;86.17;93267.63;5070667;28;20216;-72
2023/12/29 03:12:07;;;;;;;11.23;10.63;;;;;;;3.82;85.87;93269.88;5070822;28;20209;-71
2023/12/29 03:14:32;;;;;;;10.83;10.27;;;;;;;3.84;86.22;93274.84;5066119;28;20195;-71
2023/12/29 03:16:58;;;;;;;12.03;11.03;;;;;;;3.73;86.69;93276.38;5067027;28;20236;-71
2023/12/29 03:19:24;;;;;;;12.13;11.17;;;;;;;3.65;87.36;93258.63;5070754;28;20181;-71
2023/12/29 03:21:50;;;;;;;11.73;10.93;;;;;;;3.80;86.42;93281.47;5079393;28;20257;-72
2023/12/29 03:24:15;;;;;;;11.53;10.63;;;;;;;3.69;86.85;93282.97;5072166;28;20169;-71
2023/12/29 03:26:41;;;;;;;11.80;11.00;;;;;;;3.60;88.12;93268.81;5064395;28;20228;-72
2023/12/29 03:29:06;;;;;;;11.93;11.03;;;;;;;3.57;87.38;93271.84;5071032;28;20188;-72
2023/12/29 03:31:31;;;;;;;12.53;11.37;;;;;;;3.52;87.23;93256.22;5062850;28;20205;-71
2023/12/29 03:33:57;;;;;;;12.67;11.77;;;;;;;3.54;87.41;93276.63;5059333;28;20194;-71
2023/12/29 03:36:22;;;;;;;15.70;14.40;;;;;;;3.72;87.03;93276.59;5073747;28;20271;-71
2023/12/29 03:38:47;;;;;;;27.70;19.80;;;;;;;3.64;87.04;93261.44;5067971;28;20220;-71
2023/12/29 03:41:13;;;;;;;25.20;19.23;;;;;;;3.53;88.51;93270.72;5056216;28;20201;-71
2023/12/29 03:43:38;;;;;;;37.40;21.67;;;;;;;3.50;88.27;93266.00;5058940;28;20317;-70
2023/12/29 03:46:18;;;;;;;21.60;17.43;;;;;;;3.30;87.67;93258.50;5061767;28;20199;-72
2023/12/29 03:48:43;;;;;;;21.47;17.87;;;;;;;3.41;88.42;93272.44;5058838;28;20219;-71
2023/12/29 03:51:09;;;;;;;16.90;15.00;;;;;;;3.49;88.66;93268.78;5077109;28;20233;-71
2023/12/29 03:53:34;;;;;;;17.07;15.30;;;;;;;3.32;89.40;93260.84;5070576;28;20236;-72
2023/12/29 03:56:05;;;;;;;17.20;15.50;;;;;;;3.44;89.13;93277.16;5070576;28;20316;-72
2023/12/29 03:58:30;;;;;;;17.73;15.47;;;;;;;3.50;88.61;93276.31;5066662;28;20309;-71
2023/12/29 04:00:55;;;;;;;18.13;16.27;;;;;;;3.48;88.77;93288.66;5070414;28;20205;-71
2023/12/29 04:03:21;;;;;;;19.63;15.73;;;;;;;3.29;88.76;93284.50;5063473;28;20218;-71
2023/12/29 04:05:46;;;;;;;23.00;17.50;;;;;;;3.32;88.90;93284.06;5063197;28;20692;-72
2023/12/29 04:08:13;;;;;;;19.93;17.53;;;;;;;3.38;89.25;93283.19;5070430;28;20217;-71
2023/12/29 04:10:38;;;;;;;30.17;20.23;;;;;;;3.37;89.34;93280.84;5065618;28;20209;-71
2023/12/29 04:13:03;;;;;;;28.87;20.90;;;;;;;3.22;89.34;93252.88;5058211;28;20228;-71
2023/12/29 04:15:29;;;;;;;29.40;20.30;;;;;;;3.47;90.33;93278.53;5070699;28;20181;-71
2023/12/29 04:17:54;;;;;;;21.77;18.83;;;;;;;3.30;89.75;93281.72;5075702;28;20216;-72
2023/12/29 04:20:19;;;;;;;24.17;18.13;;;;;;;3.21;90.29;93277.88;5072407;28;20237;-71
2023/12/29 04:22:46;;;;;;;18.70;16.47;;;;;;;3.23;89.86;93290.56;5058184;28;20217;-72
2023/12/29 04:25:11;;;;;;;19.80;17.60;;;;;;;3.25;89.65;93291.13;5045483;28;20178;-72
2023/12/29 04:27:37;;;;;;;21.13;18.67;;;;;;;3.29;90.13;93289.69;5032624;28;20287;-71
2023/12/29 04:30:03;;;;;;;28.33;19.97;;;;;;;3.19;90.13;93279.88;5042247;28;20209;-72
2023/12/29 04:32:28;;;;;;;28.83;22.07;;;;;;;3.10;90.57;93281.19;5047998;28;20234;-72
2023/12/29 04:34:53;;;;;;;26.67;20.80;;;;;;;3.13;90.67;93291.06;5049991;28;20178;-72
2023/12/29 04:37:18;;;;;;;23.43;20.40;;;;;;;3.04;91.00;93287.19;5049056;28;20271;-71
2023/12/29 04:39:44;;;;;;;21.27;17.77;;;;;;;2.87;91.46;93262.22;5050362;28;20189;-72
2023/12/29 04:42:09;;;;;;;22.50;18.97;;;;;;;2.96;91.61;93292.66;5049091;28;20218;-72
2023/12/29 04:44:35;;;;;;;25.07;19.57;;;;;;;2.91;91.90;93281.41;5062955;28;20194;-72
2023/12/29 04:47:00;;;;;;;27.73;20.53;;;;;;;2.92;91.19;93268.31;5066818;28;20251;-72
2023/12/29 04:49:25;;;;;;;26.37;20.80;;;;;;;2.96;91.60;93274.59;5071005;28;20240;-71
2023/12/29 04:51:51;;;;;;;26.40;20.53;;;;;;;2.94;91.88;93286.13;5067841;28;20240;-72
2023/12/29 04:54:16;;;;;;;25.67;19.53;;;;;;;2.90;92.10;93280.63;5068938;28;20196;-71
2023/12/29 04:56:42;;;;;;;22.40;19.23;;;;;;;2.86;92.11;93283.84;5069526;28;20228;-71
2023/12/29 04:59:07;;;;;;;24.57;18.13;;;;;;;2.96;91.58;93284.13;5075364;28;20172;-71
2023/12/29 05:01:32;;;;;;;18.70;16.97;;;;;;;3.08;90.57;93285.00;5068552;28;20181;-71
2023/12/29 05:03:58;;;;;;;18.57;15.40;;;;;;;2.98;91.11;93282.13;5068944;28;20188;-72
2023/12/29 05:06:23;;;;;;;15.93;14.63;;;;;;;3.08;91.66;93282.41;5068108;28;20380;-72
2023/12/29 05:08:48;;;;;;;13.77;12.77;;;;;;;3.02;91.23;93278.88;5073127;28;20181;-72
2023/12/29 05:11:14;;;;;;;15.10;13.57;;;;;;;2.89;91.67;93268.75;5071009;28;20228;-71
2023/12/29 05:13:39;;;;;;;16.40;14.80;;;;;;;2.82;91.79;93257.69;5049894;28;20218;-71
2023/12/29 05:16:05;;;;;;;13.70;12.47;;;;;;;2.98;90.86;93266.63;5048787;28;20209;-72
2023/12/29 05:18:31;;;;;;;15.07;13.60;;;;;;;2.95;90.98;93254.19;5048145;28;20252;-71
2023/12/29 05:20:56;;;;;;;14.67;13.27;;;;;;;3.04;90.99;93260.63;5048018;28;20234;-71
2023/12/29 05:23:21;;;;;;;14.90;13.43;;;;;;;2.98;91.56;93257.13;5048860;28;20462;-71
2023/12/29 05:25:47;;;;;;;21.03;17.33;;;;;;;3.15;90.93;93258.09;5041461;28;20179;-71
2023/12/29 05:28:12;;;;;;;20.93;16.50;;;;;;;3.01;91.69;93255.88;5045113;28;20212;-71
2023/12/29 05:30:37;;;;;;;16.60;14.97;;;;;;;3.09;91.81;93265.91;5048123;28;20214;-71
2023/12/29 05:33:03;;;;;;;16.10;14.77;;;;;;;2.95;91.93;93244.66;5048448;28;20210;-71
2023/12/29 05:35:28;;;;;;;16.23;14.83;;;;;;;3.02;91.26;93262.63;5043577;28;20213;-72
2023/12/29 05:37:53;;;;;;;14.97;13.70;;;;;;;2.95;91.00;93259.34;5048911;28;20245;-71
2023/12/29 05:40:19;;;;;;;14.07;12.67;;;;;;;3.05;91.13;93257.81;5048713;28;20205;-71
2023/12/29 05:42:44;;;;;;;19.33;16.30;;;;;;;3.25;90.37;93273.84;5049204;28;20230;-71
2023/12/29 05:45:09;;;;;;;18.50;16.73;;;;;;;3.25;89.25;93279.00;5046843;28;20198;-71
2023/12/29 05:47:35;;;;;;;24.57;18.03;;;;;;;3.17;89.97;93284.47;5048127;28;20218;-70
2023/12/29 05:50:00;;;;;;;19.77;16.83;;;;;;;3.12;90.12;93268.06;5042017;28;20210;-71
2023/12/29 05:52:26;;;;;;;19.83;17.87;;;;;;;3.13;90.84;93283.31;5043667;28;20237;-71
2023/12/29 05:54:51;;;;;;;22.03;17.97;;;;;;;3.15;90.69;93277.94;5046035;28;20205;-71
2023/12/29 05:57:16;;;;;;;27.00;20.00;;;;;;;3.07;90.64;93270.50;5045734;28;20237;-69
2023/12/29 05:59:42;;;;;;;32.77;23.03;;;;;;;3.11;90.87;93276.81;5044331;28;20182;-71
2023/12/29 06:02:07;;;;;;;39.87;22.80;;;;;;;3.11;91.08;93272.41;5040368;28;20248;-71
2023/12/29 06:04:32;;;;;;;54.20;27.40;;;;;;;2.75;91.60;93214.97;5049460;28;20178;-71
2023/12/29 06:06:58;;;;;;;65.90;33.17;;;;;;;2.99;91.85;93245.00;5051473;28;20285;-72
2023/12/29 06:09:23;;;;;;;58.33;31.13;;;;;;;2.94;92.88;93255.97;5060235;28;20197;-71
2023/12/29 06:11:50;;;;;;;52.67;25.93;;;;;;;3.04;92.05;93251.09;5065201;28;20237;-71
2023/12/29 06:14:15;;;;;;;42.03;24.17;;;;;;;3.05;92.24;93246.72;5048271;28;20205;-71
2023/12/29 06:16:40;;;;;;;42.80;24.33;;;;;;;3.13;91.90;93243.84;5048589;28;20241;-72
2023/12/29 06:19:06;;;;;;;38.73;23.43;;;;;;;3.19;91.42;93250.72;5043789;28;20198;-71
2023/12/29 06:21:31;;;;;;;34.37;22.47;;;;;;;3.41;90.54;93251.78;5046676;28;20240;-70
2023/12/29 06:23:56;;;;;;;38.73;21.73;;;;;;;3.38;90.38;93249.66;5058266;28;20213;-72
2023/12/29 06:26:22;;;;;;;35.77;20.37;;;;;;;3.51;90.27;93257.22;5067447;28;20194;-71
2023/12/29 06:28:48;;;;;;;23.13;16.83;;;;;;;3.61;89.48;93260.06;5065836;28;20252;-72
2023/12/29 06:31:14;;;;;;;18.50;16.00;;;;;;;3.57;89.15;93265.88;5062849;28;20205;-72
2023/12/29 06:33:42;;;;;;;24.33;17.50;;;;;;;3.47;89.58;93256.06;5066256;28;20232;-72
2023/12/29 06:36:09;;;;;;;17.67;15.67;;;;;;;3.31;89.51;93264.44;5067509;28;20187;-72
2023/12/29 06:38:35;;;;;;;26.13;14.43;;;;;;;3.46;89.46;93275.16;5066247;28;20209;-72
2023/12/29 06:41:03;;;;;;;39.93;18.50;;;;;;;3.35;89.80;93275.91;5064578;28;20182;-72
2023/12/29 06:43:28;;;;;;;33.30;16.87;;;;;;;3.38;90.30;93275.47;5065268;28;20214;-71
2023/12/29 06:45:53;;;;;;;17.03;15.50;;;;;;;3.54;89.19;93267.13;5067709;28;20192;-71
2023/12/29 06:48:19;;;;;;;21.60;16.13;;;;;;;3.53;89.62;93255.22;5068579;28;20225;-71
2023/12/29 06:50:44;;;;;;;19.20;16.40;;;;;;;3.46;89.81;93248.56;5061665;28;20217;-72
2023/12/29 06:53:10;;;;;;;32.73;17.17;;;;;;;3.53;89.89;93259.59;5057230;28;20225;-72
2023/12/29 06:55:35;;;;;;;27.67;18.77;;;;;;;3.54;89.59;93261.94;5069880;28;20200;-72
2023/12/29 06:58:00;;;;;;;22.20;17.90;;;;;;;3.65;89.57;93271.53;5065474;28;20224;-72
2023/12/29 07:00:26;;;;;;;27.07;18.37;;;;;;;3.88;89.02;93276.75;5067092;28;20194;-72
2023/12/29 07:02:51;;;;;;;21.43;17.33;;;;;;;3.95;89.01;93274.88;5053588;28;20215;-72
2023/12/29 07:05:16;;;;;;;21.87;18.30;;;;;;;4.10;89.05;93282.19;5046691;28;20178;-71
2023/12/29 07:07:42;;;;;;;20.50;18.30;;;;;;;4.17;89.32;93280.28;5045430;28;20278;-72
2023/12/29 07:10:08;;;;;;;25.70;19.70;;;;;;;4.30;88.50;93287.81;5047705;28;20190;-72
2023/12/29 07:12:33;;;;;;;29.33;21.50;;;;;;;4.43;89.49;93278.06;5051327;28;20233;-72
2023/12/29 07:14:58;;;;;;;28.93;21.97;;;;;;;4.58;90.41;93283.56;5036896;28;20193;-72
2023/12/29 07:17:23;;;;;;;25.17;19.93;;;;;;;4.70;89.97;93279.16;5038846;28;20226;-72
2023/12/29 07:19:49;;;;;;;22.83;19.13;;;;;;;4.60;89.19;93267.81;5047068;28;20233;-72
2023/12/29 07:22:15;;;;;;;29.27;18.67;;;;;;;4.49;89.70;93261.66;5052904;28;20217;-72
2023/12/29 07:24:41;;;;;;;20.13;18.07;;;;;;;4.38;89.69;93249.50;5062269;28;20193;-71
2023/12/29 07:27:07;;;;;;;24.70;17.43;;;;;;;4.57;89.67;93257.94;5075256;28;20228;-72
2023/12/29 07:29:33;;;;;;;22.13;16.93;;;;;;;4.51;89.22;93245.91;5064259;28;20197;-72
2023/12/29 07:31:59;;;;;;;20.17;17.30;;;;;;;4.53;88.97;93246.44;5067229;28;20898;-72
2023/12/29 07:34:24;;;;;;;18.83;16.43;;;;;;;4.84;87.97;93253.88;5065646;28;20224;-72
2023/12/29 07:36:50;;;;;;;21.37;18.57;;;;;;;4.77;88.62;93248.00;5070699;28;20992;-72
2023/12/29 07:39:15;;;;;;;25.17;20.90;;;;;;;4.94;88.08;93257.44;5063603;28;20163;-71
2023/12/29 07:41:41;;;;;;;26.97;20.17;;;;;;;5.03;87.41;93263.03;5071419;28;20221;-71
2023/12/29 07:44:07;;;;;;;26.87;20.40;;;;;;;4.85;87.45;93230.34;5067144;28;20185;-71
2023/12/29 07:46:33;;;;;;;28.20;22.33;;;;;;;5.07;87.18;93268.53;5069184;28;20189;-71
2023/12/29 07:48:58;;;;;;;23.03;20.63;;;;;;;4.78;88.46;93263.31;5066415;28;20593;-71
2023/12/29 07:51:24;;;;;;;29.70;22.67;;;;;;;4.85;89.64;93263.97;5068030;28;20201;-71
2023/12/29 07:53:49;;;;;;;26.87;22.47;;;;;;;5.06;89.27;93254.81;5058595;28;20220;-72
2023/12/29 07:56:14;;;;;;;31.57;22.37;;;;;;;5.36;88.46;93252.00;5059711;28;20186;-71
2023/12/29 07:58:40;;;;;;;25.80;21.63;;;;;;;5.25;89.06;93271.75;5056554;28;20217;-71
2023/12/29 08:01:05;;;;;;;29.57;22.40;;;;;;;5.38;89.33;93276.69;5061002;28;20249;-72
2023/12/29 08:03:30;;;;;;;29.00;23.57;;;;;;;5.54;88.20;93277.75;5054237;28;20233;-71
2023/12/29 08:05:56;;;;;;;30.70;24.47;;;;;;;5.53;88.78;93279.53;5064734;28;20190;-72
2023/12/29 08:08:21;;;;;;;31.33;24.30;;;;;;;5.49;89.07;93283.63;5070142;28;20302;-72
2023/12/29 08:10:47;;;;;;;31.53;24.87;;;;;;;5.65;88.79;93282.84;5067110;28;20212;-72
2023/12/29 08:13:12;;;;;;;28.97;23.87;;;;;;;5.70;89.09;93282.16;5055011;28;20283;-72
2023/12/29 08:15:37;;;;;;;29.83;24.97;;;;;;;5.78;89.15;93274.03;5060961;28;20239;-72
2023/12/29 08:18:04;;;;;;;30.97;24.50;;;;;;;5.83;89.28;93274.16;5061618;28;20296;-72
2023/12/29 08:20:29;;;;;;;32.53;23.57;;;;;;;6.01;89.02;93264.34;5068026;28;21870;-71
2023/12/29 08:22:56;;;;;;;29.73;22.63;;;;;;;6.16;88.71;93271.59;5048505;28;20227;-72
2023/12/29 08:25:22;;;;;;;28.60;24.47;;;;;;;6.13;88.81;93275.44;5050659;28;20280;-72
2023/12/29 08:27:47;;;;;;;35.07;25.53;;;;;;;6.12;89.28;93262.69;5050375;28;20218;-72
2023/12/29 08:30:13;;;;;;;34.03;26.17;;;;;;;6.18;88.90;93256.56;5037930;28;20241;-71
2023/12/29 08:32:38;;;;;;;39.27;27.70;;;;;;;6.09;88.61;93269.16;5042625;28;20257;-72
2023/12/29 08:35:04;;;;;;;40.43;29.97;;;;;;;6.36;86.83;93275.28;5044643;28;20183;-72
2023/12/29 08:37:29;;;;;;;40.20;28.20;;;;;;;6.57;84.95;93286.75;5042800;28;20222;-72
2023/12/29 08:39:54;;;;;;;48.67;33.00;;;;;;;6.14;85.47;93296.97;5043868;28;20204;-72
2023/12/29 08:42:21;;;;;;;46.83;31.70;;;;;;;6.10;85.81;93293.28;5050323;28;20298;-73
2023/12/29 08:44:46;;;;;;;50.30;35.37;;;;;;;6.09;85.51;93289.09;5049768;28;20190;-71
2023/12/29 08:47:11;;;;;;;46.07;34.07;;;;;;;5.93;85.83;93302.84;5049148;28;20237;-72
2023/12/29 08:49:38;;;;;;;49.30;33.83;;;;;;;6.06;85.92;93294.75;5066641;28;20209;-71
2023/12/29 08:52:04;;;;;;;44.00;32.17;;;;;;;6.23;84.90;93291.16;5055155;28;20260;-72
2023/12/29 08:54:29;;;;;;;54.07;34.80;;;;;;;6.13;85.41;93293.56;5068748;28;20182;-72
2023/12/29 08:56:54;;;;;;;47.70;34.77;;;;;;;5.88;86.13;93295.72;5059764;28;20320;-72
2023/12/29 08:59:20;;;;;;;52.13;34.80;;;;;;;5.97;86.53;93296.16;5044827;28;20191;-73
2023/12/29 09:01:45;;;;;;;48.63;34.60;;;;;;;6.15;85.35;93294.13;5044732;28;20286;-72
2023/12/29 09:04:10;;;;;;;48.50;34.03;;;;;;;6.10;85.42;93290.69;5044663;28;20202;-72
2023/12/29 09:06:36;;;;;;;52.27;33.27;;;;;;;6.32;84.29;93294.13;5045165;28;20190;-73
2023/12/29 09:09:01;;;;;;;43.10;28.87;;;;;;;6.60;82.77;93301.06;5037520;28;20202;-72
2023/12/29 09:11:26;;;;;;;42.10;30.03;;;;;;;6.20;84.13;93301.19;5049203;28;20224;-70
2023/12/29 09:13:52;;;;;;;47.73;31.63;;;;;;;5.96;85.74;93289.41;5045519;28;20183;-72
2023/12/29 09:16:18;;;;;;;47.37;32.37;;;;;;;6.35;84.60;93306.66;5045246;28;20213;-72
2023/12/29 09:18:43;;;;;;;38.17;30.93;;;;;;;6.38;84.39;93303.59;5044607;28;20234;-71
2023/12/29 09:21:08;;;;;;;46.93;31.10;;;;;;;6.51;83.88;93298.06;5045238;28;20293;-73
2023/12/29 09:23:34;;;;;;;47.83;33.70;;;;;;;6.36;84.31;93282.28;5044330;28;20226;-72
2023/12/29 09:25:59;;;;;;;46.60;29.97;;;;;;;6.57;84.31;93275.59;5049189;28;20212;-72
2023/12/29 09:28:25;;;;;;;39.83;32.10;;;;;;;6.84;83.60;93281.66;5061229;28;20221;-71
2023/12/29 09:30:50;;;;;;;42.33;31.93;;;;;;;6.88;82.82;93275.00;5054347;28;20231;-72
2023/12/29 09:33:15;;;;;;;45.73;32.03;;;;;;;6.95;83.00;93266.00;5068439;28;20217;-71
2023/12/29 09:35:41;;;;;;;51.13;31.07;;;;;;;7.37;81.64;93267.06;5061242;28;20186;-72
2023/12/29 09:38:06;;;;;;;40.43;30.57;;;;;;;7.45;81.21;93268.44;5068072;28;20225;-72
2023/12/29 09:40:32;;;;;;;47.53;32.13;;;;;;;7.12;82.73;93260.75;5066245;28;20201;-72
2023/12/29 09:42:59;;;;;;;40.77;30.50;;;;;;;7.53;80.73;93263.56;5068576;28;20237;-71
2023/12/29 09:45:25;;;;;;;48.83;27.67;;;;;;;7.57;80.84;93267.28;5056356;28;20189;-71
2023/12/29 09:47:54;;;;;;;43.43;29.40;;;;;;;7.61;80.67;93268.34;5068912;28;20225;-71
2023/12/29 09:50:21;;;;;;;40.80;29.37;;;;;;;7.73;79.73;93270.81;5069273;28;20212;-71
2023/12/29 09:52:50;;;;;;;40.17;28.27;;;;;;;7.62;80.82;93264.72;5065981;28;20252;-71
2023/12/29 09:55:15;;;;;;;42.77;29.43;;;;;;;7.42;81.56;93254.13;5064318;28;20851;-71
2023/12/29 09:57:41;;;;;;;39.23;29.27;;;;;;;7.43;82.25;93250.50;5068295;28;20287;-72
2023/12/29 10:00:10;;;;;;;37.00;29.40;;;;;;;7.39;81.04;93243.44;5070321;28;20180;-73
2023/12/29 10:02:36;;;;;;;37.03;27.43;;;;;;;7.56;81.44;93250.13;5063301;28;21000;-71
2023/12/29 10:05:03;;;;;;;39.70;27.73;;;;;;;7.84;80.11;93257.66;5051212;28;20190;-72
2023/12/29 10:07:32;;;;;;;35.37;26.93;;;;;;;8.04;78.72;93247.47;5058392;28;20226;-72
2023/12/29 10:09:58;;;;;;;33.10;26.87;;;;;;;8.27;76.92;93253.38;5043432;28;20231;-72
2023/12/29 10:12:25;;;;;;;34.27;25.37;;;;;;;8.42;76.52;93245.72;5041897;28;20226;-72
2023/12/29 10:14:59;;;;;;;41.53;27.57;;;;;;;8.41;76.98;93249.31;5040245;28;20200;-72
2023/12/29 10:17:36;;;;;;;36.97;26.73;;;;;;;8.45;76.52;93247.81;5052884;28;20247;-72
2023/12/29 10:20:20;;;;;;;34.23;26.10;;;;;;;8.60;75.63;93247.91;5058284;28;20366;-71
2023/12/29 10:22:54;;;;;;;36.13;25.50;;;;;;;8.45;76.08;93232.19;5072363;28;20229;-72
2023/12/29 10:25:22;;;;;;;31.43;25.70;;;;;;;8.32;77.21;93233.41;5072307;28;20196;-72
2023/12/29 10:27:49;;;;;;;32.43;26.77;;;;;;;8.40;76.89;93230.34;5061983;28;20226;-71
2023/12/29 10:30:15;;;;;;;35.67;26.03;;;;;;;8.79;75.11;93217.84;5059582;28;20239;-71
2023/12/29 10:32:41;;;;;;;36.73;27.67;;;;;;;8.99;74.08;93212.72;5072400;28;20239;-72
2023/12/29 10:35:10;;;;;;;32.37;25.53;;;;;;;9.21;72.66;93187.28;5072954;28;20186;-71
2023/12/29 10:37:36;;;;;;;29.03;25.07;;;;;;;9.38;72.61;93200.91;5070843;28;20230;-71
2023/12/29 10:40:02;;;;;;;33.03;24.90;;;;;;;9.52;71.63;93188.94;5063849;28;20196;-72
2023/12/29 10:42:28;;;;;;;33.53;25.47;;;;;;;9.76;70.74;93197.84;5050741;28;20218;-72
2023/12/29 10:45:10;;;;;;;29.70;25.13;;;;;;;9.89;70.17;93207.00;5052498;28;20185;-71
2023/12/29 10:47:35;;;;;;;37.40;24.53;;;;;;;9.86;70.03;93197.06;5053401;28;20232;-72
2023/12/29 10:50:03;;;;;;;35.40;25.53;;;;;;;9.39;72.22;93194.63;5063947;28;20202;-72
2023/12/29 10:52:29;;;;;;;34.77;24.27;;;;;;;9.39;71.90;93182.41;5067799;28;20225;-72
2023/12/29 10:55:05;;;;;;;30.97;25.40;;;;;;;9.58;71.68;93186.09;5063255;28;20178;-72
2023/12/29 10:57:30;;;;;;;31.03;24.87;;;;;;;9.25;71.55;93150.06;5056598;28;20239;-72
2023/12/29 10:59:56;;;;;;;34.80;25.77;;;;;;;9.58;71.82;93177.50;5051670;28;20186;-73
2023/12/29 11:02:21;;;;;;;36.87;24.33;;;;;;;9.70;71.76;93168.38;5041612;28;20229;-72
2023/12/29 11:04:47;;;;;;;38.03;26.17;;;;;;;9.73;71.75;93156.66;5050460;28;20194;-72
2023/12/29 11:07:13;;;;;;;31.27;25.33;;;;;;;9.84;71.53;93150.41;5045346;28;20241;-72
2023/12/29 11:09:38;;;;;;;34.63;22.47;;;;;;;10.16;70.25;93161.41;5040265;28;20214;-72
2023/12/29 11:12:05;;;;;;;32.80;24.33;;;;;;;10.51;67.47;93157.94;5048989;28;20273;-71
2023/12/29 11:14:32;;;;;;;33.47;23.33;;;;;;;10.58;66.50;93146.22;5049816;28;20182;-71
2023/12/29 11:17:00;;;;;;;32.60;23.93;;;;;;;10.71;66.39;93153.47;5047368;28;20227;-73
2023/12/29 11:19:26;;;;;;;27.17;22.13;;;;;;;10.91;65.70;93147.41;5051351;28;20181;-71